sensor_id;sensor_type;location;lat;lon;timestamp;P1;durP1;ratioP1;P2;durP2;ratioP2
23474;SDS011;11910;52.086;21.066;2023-05-10T00:00:43;14.00;;;9.65;;
23474;SDS011;11910;52.086;21.066;2023-05-10T00:03:09;18.02;;;9.98;;
23474;SDS011;11910;52.086;21.066;2023-05-10T00:05:35;12.55;;;9.13;;
23474;SDS011;11910;52.086;21.066;2023-05-10T00:08:01;13.95;;;9.32;;
23474;SDS011;11910;52.086;21.066;2023-05-10T00:10:26;14.65;;;9.48;;
23474;SDS011;11910;52.086;21.066;2023-05-10T00:12:52;14.40;;;9.13;;
23474;SDS011;11910;52.086;21.066;2023-05-10T00:15:18;14.20;;;9.35;;
23474;SDS011;11910;52.086;21.066;2023-05-10T00:17:43;17.33;;;9.82;;
23474;SDS011;11910;52.086;21.066;2023-05-10T00:20:09;12.43;;;9.15;;
23474;SDS011;11910;52.086;21.066;2023-05-10T00:22:35;15.98;;;9.57;;
23474;SDS011;11910;52.086;21.066;2023-05-10T00:25:01;14.32;;;9.40;;
23474;SDS011;11910;52.086;21.066;2023-05-10T00:27:26;14.57;;;9.27;;
23474;SDS011;11910;52.086;21.066;2023-05-10T00:29:52;15.13;;;9.15;;
23474;SDS011;11910;52.086;21.066;2023-05-10T00:32:17;11.35;;;8.90;;
23474;SDS011;11910;52.086;21.066;2023-05-10T00:34:43;13.20;;;9.32;;
23474;SDS011;11910;52.086;21.066;2023-05-10T00:37:08;14.68;;;9.50;;
23474;SDS011;11910;52.086;21.066;2023-05-10T00:39:34;13.85;;;9.60;;
23474;SDS011;11910;52.086;21.066;2023-05-10T00:42:00;14.70;;;9.45;;
23474;SDS011;11910;52.086;21.066;2023-05-10T00:44:25;13.13;;;9.45;;
23474;SDS011;11910;52.086;21.066;2023-05-10T00:46:51;14.30;;;9.00;;
23474;SDS011;11910;52.086;21.066;2023-05-10T00:49:17;15.77;;;9.98;;
23474;SDS011;11910;52.086;21.066;2023-05-10T00:51:43;14.25;;;9.50;;
23474;SDS011;11910;52.086;21.066;2023-05-10T00:54:11;15.50;;;9.30;;
23474;SDS011;11910;52.086;21.066;2023-05-10T00:56:38;14.35;;;8.98;;
23474;SDS011;11910;52.086;21.066;2023-05-10T00:59:05;13.82;;;8.82;;
23474;SDS011;11910;52.086;21.066;2023-05-10T01:01:31;13.77;;;9.85;;
23474;SDS011;11910;52.086;21.066;2023-05-10T01:03:57;13.13;;;8.40;;
23474;SDS011;11910;52.086;21.066;2023-05-10T01:06:23;10.55;;;8.38;;
23474;SDS011;11910;52.086;21.066;2023-05-10T01:08:48;12.88;;;8.40;;
23474;SDS011;11910;52.086;21.066;2023-05-10T01:11:15;13.70;;;9.20;;
23474;SDS011;11910;52.086;21.066;2023-05-10T01:13:40;18.70;;;8.98;;
23474;SDS011;11910;52.086;21.066;2023-05-10T01:16:08;15.68;;;8.43;;
23474;SDS011;11910;52.086;21.066;2023-05-10T01:18:35;19.17;;;9.02;;
23474;SDS011;11910;52.086;21.066;2023-05-10T01:26:33;20.13;;;9.00;;
23474;SDS011;11910;52.086;21.066;2023-05-10T01:32:08;18.75;;;7.80;;
23474;SDS011;11910;52.086;21.066;2023-05-10T01:34:49;13.98;;;7.75;;
23474;SDS011;11910;52.086;21.066;2023-05-10T01:37:25;15.25;;;7.88;;
23474;SDS011;11910;52.086;21.066;2023-05-10T01:40:00;11.85;;;7.63;;
23474;SDS011;11910;52.086;21.066;2023-05-10T01:42:39;10.80;;;7.78;;
23474;SDS011;11910;52.086;21.066;2023-05-10T01:45:15;11.70;;;7.03;;
23474;SDS011;11910;52.086;21.066;2023-05-10T01:50:29;11.95;;;7.80;;
23474;SDS011;11910;52.086;21.066;2023-05-10T01:52:56;11.30;;;7.60;;
23474;SDS011;11910;52.086;21.066;2023-05-10T01:55:25;8.32;;;6.53;;
23474;SDS011;11910;52.086;21.066;2023-05-10T01:57:56;12.75;;;7.18;;
23474;SDS011;11910;52.086;21.066;2023-05-10T02:00:27;10.40;;;7.05;;
23474;SDS011;11910;52.086;21.066;2023-05-10T02:02:54;12.05;;;7.65;;
23474;SDS011;11910;52.086;21.066;2023-05-10T02:05:21;11.15;;;7.72;;
23474;SDS011;11910;52.086;21.066;2023-05-10T02:07:47;12.25;;;7.72;;
23474;SDS011;11910;52.086;21.066;2023-05-10T02:10:15;10.50;;;7.00;;
23474;SDS011;11910;52.086;21.066;2023-05-10T02:12:43;10.23;;;7.45;;
23474;SDS011;11910;52.086;21.066;2023-05-10T02:15:11;10.18;;;6.97;;
23474;SDS011;11910;52.086;21.066;2023-05-10T02:17:40;13.10;;;6.45;;
23474;SDS011;11910;52.086;21.066;2023-05-10T02:20:08;9.70;;;6.93;;
23474;SDS011;11910;52.086;21.066;2023-05-10T02:22:36;8.52;;;6.32;;
23474;SDS011;11910;52.086;21.066;2023-05-10T02:25:05;8.95;;;6.70;;
23474;SDS011;11910;52.086;21.066;2023-05-10T02:27:33;8.93;;;6.20;;
23474;SDS011;11910;52.086;21.066;2023-05-10T02:29:59;8.40;;;6.00;;
23474;SDS011;11910;52.086;21.066;2023-05-10T02:32:26;8.48;;;6.40;;
23474;SDS011;11910;52.086;21.066;2023-05-10T02:34:52;9.75;;;6.53;;
23474;SDS011;11910;52.086;21.066;2023-05-10T02:37:20;7.43;;;6.20;;
23474;SDS011;11910;52.086;21.066;2023-05-10T02:39:46;10.82;;;6.60;;
23474;SDS011;11910;52.086;21.066;2023-05-10T02:42:18;8.85;;;5.80;;
23474;SDS011;11910;52.086;21.066;2023-05-10T02:44:45;7.53;;;5.75;;
23474;SDS011;11910;52.086;21.066;2023-05-10T02:47:13;8.68;;;6.18;;
23474;SDS011;11910;52.086;21.066;2023-05-10T02:49:39;10.23;;;6.28;;
23474;SDS011;11910;52.086;21.066;2023-05-10T02:52:05;7.68;;;5.75;;
23474;SDS011;11910;52.086;21.066;2023-05-10T02:54:35;8.65;;;6.28;;
23474;SDS011;11910;52.086;21.066;2023-05-10T02:57:07;9.23;;;5.90;;
23474;SDS011;11910;52.086;21.066;2023-05-10T02:59:36;8.30;;;6.05;;
23474;SDS011;11910;52.086;21.066;2023-05-10T03:02:02;8.88;;;5.80;;
23474;SDS011;11910;52.086;21.066;2023-05-10T03:04:28;9.18;;;5.82;;
23474;SDS011;11910;52.086;21.066;2023-05-10T03:06:55;9.23;;;6.25;;
23474;SDS011;11910;52.086;21.066;2023-05-10T03:09:21;10.85;;;6.28;;
23474;SDS011;11910;52.086;21.066;2023-05-10T03:19:49;10.15;;;6.15;;
23474;SDS011;11910;52.086;21.066;2023-05-10T03:22:31;9.35;;;5.93;;
23474;SDS011;11910;52.086;21.066;2023-05-10T03:25:03;8.50;;;5.75;;
23474;SDS011;11910;52.086;21.066;2023-05-10T03:27:31;8.07;;;5.80;;
23474;SDS011;11910;52.086;21.066;2023-05-10T03:29:58;7.70;;;5.85;;
23474;SDS011;11910;52.086;21.066;2023-05-10T03:32:26;9.15;;;6.15;;
23474;SDS011;11910;52.086;21.066;2023-05-10T03:34:53;8.20;;;6.32;;
23474;SDS011;11910;52.086;21.066;2023-05-10T03:37:19;7.63;;;5.82;;
23474;SDS011;11910;52.086;21.066;2023-05-10T03:39:44;12.18;;;6.45;;
23474;SDS011;11910;52.086;21.066;2023-05-10T03:42:10;8.20;;;5.68;;
23474;SDS011;11910;52.086;21.066;2023-05-10T03:44:37;9.00;;;6.28;;
23474;SDS011;11910;52.086;21.066;2023-05-10T03:47:03;7.82;;;5.70;;
23474;SDS011;11910;52.086;21.066;2023-05-10T03:49:29;11.30;;;6.53;;
23474;SDS011;11910;52.086;21.066;2023-05-10T03:51:55;11.95;;;6.38;;
23474;SDS011;11910;52.086;21.066;2023-05-10T03:54:20;11.00;;;6.50;;
23474;SDS011;11910;52.086;21.066;2023-05-10T03:56:46;10.95;;;6.78;;
23474;SDS011;11910;52.086;21.066;2023-05-10T03:59:12;8.38;;;6.47;;
23474;SDS011;11910;52.086;21.066;2023-05-10T04:01:38;10.45;;;6.40;;
23474;SDS011;11910;52.086;21.066;2023-05-10T04:04:04;10.00;;;6.55;;
23474;SDS011;11910;52.086;21.066;2023-05-10T04:06:30;10.35;;;6.53;;
23474;SDS011;11910;52.086;21.066;2023-05-10T04:08:55;10.00;;;6.82;;
23474;SDS011;11910;52.086;21.066;2023-05-10T04:11:24;9.90;;;6.63;;
23474;SDS011;11910;52.086;21.066;2023-05-10T04:13:50;8.32;;;6.60;;
23474;SDS011;11910;52.086;21.066;2023-05-10T04:16:16;9.85;;;6.53;;
23474;SDS011;11910;52.086;21.066;2023-05-10T04:18:41;11.63;;;6.65;;
23474;SDS011;11910;52.086;21.066;2023-05-10T04:21:13;11.43;;;6.82;;
23474;SDS011;11910;52.086;21.066;2023-05-10T04:26:05;13.55;;;6.63;;
23474;SDS011;11910;52.086;21.066;2023-05-10T04:28:31;12.05;;;6.45;;
23474;SDS011;11910;52.086;21.066;2023-05-10T04:31:03;15.77;;;6.43;;
23474;SDS011;11910;52.086;21.066;2023-05-10T04:33:30;10.27;;;6.10;;
23474;SDS011;11910;52.086;21.066;2023-05-10T04:35:56;12.50;;;5.75;;
23474;SDS011;11910;52.086;21.066;2023-05-10T04:38:21;12.48;;;6.18;;
23474;SDS011;11910;52.086;21.066;2023-05-10T04:40:47;9.55;;;5.88;;
23474;SDS011;11910;52.086;21.066;2023-05-10T04:43:13;8.15;;;5.60;;
23474;SDS011;11910;52.086;21.066;2023-05-10T04:45:39;9.43;;;5.28;;
23474;SDS011;11910;52.086;21.066;2023-05-10T04:48:05;10.20;;;5.53;;
23474;SDS011;11910;52.086;21.066;2023-05-10T04:50:31;11.88;;;5.80;;
23474;SDS011;11910;52.086;21.066;2023-05-10T04:52:56;9.00;;;5.93;;
23474;SDS011;11910;52.086;21.066;2023-05-10T04:55:23;7.80;;;5.60;;
23474;SDS011;11910;52.086;21.066;2023-05-10T04:57:48;9.75;;;5.85;;
23474;SDS011;11910;52.086;21.066;2023-05-10T05:00:14;10.18;;;5.40;;
23474;SDS011;11910;52.086;21.066;2023-05-10T05:02:44;9.52;;;5.63;;
23474;SDS011;11910;52.086;21.066;2023-05-10T05:05:10;8.25;;;5.35;;
23474;SDS011;11910;52.086;21.066;2023-05-10T05:07:36;10.70;;;5.63;;
23474;SDS011;11910;52.086;21.066;2023-05-10T05:10:03;8.73;;;5.47;;
23474;SDS011;11910;52.086;21.066;2023-05-10T05:12:30;12.30;;;5.47;;
23474;SDS011;11910;52.086;21.066;2023-05-10T05:14:56;12.30;;;5.40;;
23474;SDS011;11910;52.086;21.066;2023-05-10T05:17:22;11.93;;;5.18;;
23474;SDS011;11910;52.086;21.066;2023-05-10T05:19:47;10.50;;;5.18;;
23474;SDS011;11910;52.086;21.066;2023-05-10T05:22:13;8.43;;;5.18;;
23474;SDS011;11910;52.086;21.066;2023-05-10T05:24:39;10.35;;;4.88;;
23474;SDS011;11910;52.086;21.066;2023-05-10T05:27:05;7.63;;;4.90;;
23474;SDS011;11910;52.086;21.066;2023-05-10T05:29:31;8.60;;;4.85;;
23474;SDS011;11910;52.086;21.066;2023-05-10T05:31:57;8.45;;;5.13;;
23474;SDS011;11910;52.086;21.066;2023-05-10T05:34:23;11.55;;;4.28;;
23474;SDS011;11910;52.086;21.066;2023-05-10T05:36:49;10.07;;;4.75;;
23474;SDS011;11910;52.086;21.066;2023-05-10T05:39:15;7.82;;;4.45;;
23474;SDS011;11910;52.086;21.066;2023-05-10T05:41:40;10.05;;;4.80;;
23474;SDS011;11910;52.086;21.066;2023-05-10T05:44:06;9.25;;;4.75;;
23474;SDS011;11910;52.086;21.066;2023-05-10T05:46:32;13.80;;;4.80;;
23474;SDS011;11910;52.086;21.066;2023-05-10T05:48:57;9.23;;;4.65;;
23474;SDS011;11910;52.086;21.066;2023-05-10T05:51:23;10.63;;;4.65;;
23474;SDS011;11910;52.086;21.066;2023-05-10T05:53:48;7.55;;;4.25;;
23474;SDS011;11910;52.086;21.066;2023-05-10T05:56:14;9.30;;;4.55;;
23474;SDS011;11910;52.086;21.066;2023-05-10T05:58:40;9.15;;;4.05;;
23474;SDS011;11910;52.086;21.066;2023-05-10T06:01:05;11.13;;;4.45;;
23474;SDS011;11910;52.086;21.066;2023-05-10T06:03:31;10.02;;;4.38;;
23474;SDS011;11910;52.086;21.066;2023-05-10T06:05:57;7.60;;;4.30;;
23474;SDS011;11910;52.086;21.066;2023-05-10T06:08:23;7.55;;;4.15;;
23474;SDS011;11910;52.086;21.066;2023-05-10T06:10:48;9.23;;;4.30;;
23474;SDS011;11910;52.086;21.066;2023-05-10T06:13:14;9.13;;;4.60;;
23474;SDS011;11910;52.086;21.066;2023-05-10T06:15:40;8.32;;;4.15;;
23474;SDS011;11910;52.086;21.066;2023-05-10T06:18:06;10.30;;;4.82;;
23474;SDS011;11910;52.086;21.066;2023-05-10T06:20:31;9.52;;;4.47;;
23474;SDS011;11910;52.086;21.066;2023-05-10T06:22:57;7.38;;;4.20;;
23474;SDS011;11910;52.086;21.066;2023-05-10T06:25:23;8.68;;;3.78;;
23474;SDS011;11910;52.086;21.066;2023-05-10T06:27:48;8.30;;;4.10;;
23474;SDS011;11910;52.086;21.066;2023-05-10T06:30:14;5.50;;;3.40;;
23474;SDS011;11910;52.086;21.066;2023-05-10T06:32:40;8.43;;;3.33;;
23474;SDS011;11910;52.086;21.066;2023-05-10T06:35:08;5.47;;;3.53;;
23474;SDS011;11910;52.086;21.066;2023-05-10T06:37:34;8.27;;;3.33;;
23474;SDS011;11910;52.086;21.066;2023-05-10T06:39:59;13.25;;;4.90;;
23474;SDS011;11910;52.086;21.066;2023-05-10T06:42:25;8.82;;;3.83;;
23474;SDS011;11910;52.086;21.066;2023-05-10T06:44:52;5.55;;;3.60;;
23474;SDS011;11910;52.086;21.066;2023-05-10T06:47:18;6.03;;;3.25;;
23474;SDS011;11910;52.086;21.066;2023-05-10T06:49:43;8.98;;;4.00;;
23474;SDS011;11910;52.086;21.066;2023-05-10T06:52:09;6.97;;;3.47;;
23474;SDS011;11910;52.086;21.066;2023-05-10T06:54:35;8.07;;;4.65;;
23474;SDS011;11910;52.086;21.066;2023-05-10T06:57:00;5.95;;;3.30;;
23474;SDS011;11910;52.086;21.066;2023-05-10T06:59:27;6.03;;;3.45;;
23474;SDS011;11910;52.086;21.066;2023-05-10T07:01:53;6.68;;;3.40;;
23474;SDS011;11910;52.086;21.066;2023-05-10T07:04:19;7.93;;;3.40;;
23474;SDS011;11910;52.086;21.066;2023-05-10T07:06:44;5.80;;;3.10;;
23474;SDS011;11910;52.086;21.066;2023-05-10T07:09:11;5.72;;;2.60;;
23474;SDS011;11910;52.086;21.066;2023-05-10T07:11:38;6.30;;;2.83;;
23474;SDS011;11910;52.086;21.066;2023-05-10T07:14:03;5.38;;;2.80;;
23474;SDS011;11910;52.086;21.066;2023-05-10T07:16:30;5.60;;;3.00;;
23474;SDS011;11910;52.086;21.066;2023-05-10T07:18:55;4.45;;;3.13;;
23474;SDS011;11910;52.086;21.066;2023-05-10T07:21:21;5.03;;;2.90;;
23474;SDS011;11910;52.086;21.066;2023-05-10T07:23:48;8.88;;;3.78;;
23474;SDS011;11910;52.086;21.066;2023-05-10T07:26:14;4.95;;;2.83;;
23474;SDS011;11910;52.086;21.066;2023-05-10T07:28:40;5.43;;;2.72;;
23474;SDS011;11910;52.086;21.066;2023-05-10T07:31:06;4.15;;;3.00;;
23474;SDS011;11910;52.086;21.066;2023-05-10T07:33:31;6.65;;;3.20;;
23474;SDS011;11910;52.086;21.066;2023-05-10T07:35:57;5.43;;;2.50;;
23474;SDS011;11910;52.086;21.066;2023-05-10T07:38:23;5.75;;;2.35;;
23474;SDS011;11910;52.086;21.066;2023-05-10T07:40:48;3.65;;;3.10;;
23474;SDS011;11910;52.086;21.066;2023-05-10T07:43:14;6.68;;;3.10;;
23474;SDS011;11910;52.086;21.066;2023-05-10T07:45:39;7.13;;;2.50;;
23474;SDS011;11910;52.086;21.066;2023-05-10T07:48:05;5.32;;;2.47;;
23474;SDS011;11910;52.086;21.066;2023-05-10T07:50:30;5.35;;;2.53;;
23474;SDS011;11910;52.086;21.066;2023-05-10T07:52:56;6.43;;;2.70;;
23474;SDS011;11910;52.086;21.066;2023-05-10T07:55:22;7.60;;;2.58;;
23474;SDS011;11910;52.086;21.066;2023-05-10T07:57:47;10.32;;;2.53;;
23474;SDS011;11910;52.086;21.066;2023-05-10T08:00:13;7.75;;;2.80;;
23474;SDS011;11910;52.086;21.066;2023-05-10T08:02:43;7.15;;;2.55;;
23474;SDS011;11910;52.086;21.066;2023-05-10T08:05:09;5.07;;;2.25;;
23474;SDS011;11910;52.086;21.066;2023-05-10T08:07:35;5.35;;;2.33;;
23474;SDS011;11910;52.086;21.066;2023-05-10T08:10:01;3.70;;;2.30;;
23474;SDS011;11910;52.086;21.066;2023-05-10T08:12:31;6.30;;;2.80;;
23474;SDS011;11910;52.086;21.066;2023-05-10T08:14:56;6.85;;;2.50;;
23474;SDS011;11910;52.086;21.066;2023-05-10T08:17:22;6.85;;;2.60;;
23474;SDS011;11910;52.086;21.066;2023-05-10T08:19:48;8.65;;;2.67;;
23474;SDS011;11910;52.086;21.066;2023-05-10T08:22:13;3.60;;;2.70;;
23474;SDS011;11910;52.086;21.066;2023-05-10T08:24:39;9.85;;;3.00;;
23474;SDS011;11910;52.086;21.066;2023-05-10T08:27:07;5.20;;;2.70;;
23474;SDS011;11910;52.086;21.066;2023-05-10T08:29:33;7.00;;;2.65;;
23474;SDS011;11910;52.086;21.066;2023-05-10T08:31:59;8.32;;;2.85;;
23474;SDS011;11910;52.086;21.066;2023-05-10T08:34:25;8.23;;;2.90;;
23474;SDS011;11910;52.086;21.066;2023-05-10T08:36:51;10.63;;;2.55;;
23474;SDS011;11910;52.086;21.066;2023-05-10T08:39:17;6.70;;;2.65;;
23474;SDS011;11910;52.086;21.066;2023-05-10T08:41:44;3.95;;;2.45;;
23474;SDS011;11910;52.086;21.066;2023-05-10T08:44:11;6.20;;;2.30;;
23474;SDS011;11910;52.086;21.066;2023-05-10T08:46:37;8.75;;;2.72;;
23474;SDS011;11910;52.086;21.066;2023-05-10T08:49:09;5.90;;;2.95;;
23474;SDS011;11910;52.086;21.066;2023-05-10T08:51:44;3.22;;;2.65;;
23474;SDS011;11910;52.086;21.066;2023-05-10T08:54:16;8.48;;;2.90;;
23474;SDS011;11910;52.086;21.066;2023-05-10T08:56:41;5.47;;;2.58;;
23474;SDS011;11910;52.086;21.066;2023-05-10T08:59:09;6.30;;;2.97;;
23474;SDS011;11910;52.086;21.066;2023-05-10T09:01:35;4.03;;;2.78;;
23474;SDS011;11910;52.086;21.066;2023-05-10T09:04:01;5.45;;;2.70;;
23474;SDS011;11910;52.086;21.066;2023-05-10T09:06:27;5.13;;;2.58;;
23474;SDS011;11910;52.086;21.066;2023-05-10T09:08:53;5.45;;;2.88;;
23474;SDS011;11910;52.086;21.066;2023-05-10T09:11:19;6.50;;;2.80;;
23474;SDS011;11910;52.086;21.066;2023-05-10T09:13:46;5.40;;;3.33;;
23474;SDS011;11910;52.086;21.066;2023-05-10T09:16:13;6.90;;;2.63;;
23474;SDS011;11910;52.086;21.066;2023-05-10T09:18:39;6.15;;;3.00;;
23474;SDS011;11910;52.086;21.066;2023-05-10T09:21:04;5.10;;;3.03;;
23474;SDS011;11910;52.086;21.066;2023-05-10T09:23:30;4.65;;;2.50;;
23474;SDS011;11910;52.086;21.066;2023-05-10T09:26:06;5.95;;;2.45;;
23474;SDS011;11910;52.086;21.066;2023-05-10T09:28:33;5.00;;;2.65;;
23474;SDS011;11910;52.086;21.066;2023-05-10T09:30:59;4.30;;;2.50;;
23474;SDS011;11910;52.086;21.066;2023-05-10T09:33:25;4.50;;;2.72;;
23474;SDS011;11910;52.086;21.066;2023-05-10T09:35:51;4.45;;;2.63;;
23474;SDS011;11910;52.086;21.066;2023-05-10T09:38:17;5.82;;;2.70;;
23474;SDS011;11910;52.086;21.066;2023-05-10T09:40:43;4.43;;;2.88;;
23474;SDS011;11910;52.086;21.066;2023-05-10T09:43:20;8.88;;;2.63;;
23474;SDS011;11910;52.086;21.066;2023-05-10T09:45:45;6.28;;;2.72;;
23474;SDS011;11910;52.086;21.066;2023-05-10T09:48:16;8.30;;;2.80;;
23474;SDS011;11910;52.086;21.066;2023-05-10T09:50:42;6.78;;;2.70;;
23474;SDS011;11910;52.086;21.066;2023-05-10T09:53:08;5.20;;;2.88;;
23474;SDS011;11910;52.086;21.066;2023-05-10T09:55:40;3.55;;;2.47;;
23474;SDS011;11910;52.086;21.066;2023-05-10T09:58:09;6.78;;;2.33;;
23474;SDS011;11910;52.086;21.066;2023-05-10T10:00:39;8.45;;;2.42;;
23474;SDS011;11910;52.086;21.066;2023-05-10T10:03:06;4.43;;;2.60;;
23474;SDS011;11910;52.086;21.066;2023-05-10T10:05:36;5.13;;;2.53;;
23474;SDS011;11910;52.086;21.066;2023-05-10T10:08:07;7.60;;;2.60;;
23474;SDS011;11910;52.086;21.066;2023-05-10T10:10:33;5.07;;;2.53;;
23474;SDS011;11910;52.086;21.066;2023-05-10T10:12:59;5.50;;;2.38;;
23474;SDS011;11910;52.086;21.066;2023-05-10T10:15:25;4.82;;;2.50;;
23474;SDS011;11910;52.086;21.066;2023-05-10T10:17:51;8.25;;;2.72;;
23474;SDS011;11910;52.086;21.066;2023-05-10T10:20:18;3.53;;;2.50;;
23474;SDS011;11910;52.086;21.066;2023-05-10T10:22:46;7.75;;;2.35;;
23474;SDS011;11910;52.086;21.066;2023-05-10T10:25:15;7.30;;;2.45;;
23474;SDS011;11910;52.086;21.066;2023-05-10T10:36:09;3.20;;;2.30;;
23474;SDS011;11910;52.086;21.066;2023-05-10T10:38:37;6.53;;;2.85;;
23474;SDS011;11910;52.086;21.066;2023-05-10T10:41:31;6.68;;;2.47;;
23474;SDS011;11910;52.086;21.066;2023-05-10T10:47:03;7.35;;;2.58;;
23474;SDS011;11910;52.086;21.066;2023-05-10T10:49:50;3.95;;;2.72;;
23474;SDS011;11910;52.086;21.066;2023-05-10T10:55:03;12.05;;;2.80;;
23474;SDS011;11910;52.086;21.066;2023-05-10T11:00:28;6.65;;;2.65;;
23474;SDS011;11910;52.086;21.066;2023-05-10T11:02:56;4.82;;;2.83;;
23474;SDS011;11910;52.086;21.066;2023-05-10T11:05:36;5.88;;;2.50;;
23474;SDS011;11910;52.086;21.066;2023-05-10T11:08:29;5.28;;;2.47;;
23474;SDS011;11910;52.086;21.066;2023-05-10T11:15:54;8.57;;;2.63;;
23474;SDS011;11910;52.086;21.066;2023-05-10T11:18:26;10.35;;;2.90;;
23474;SDS011;11910;52.086;21.066;2023-05-10T11:20:57;7.38;;;2.90;;
23474;SDS011;11910;52.086;21.066;2023-05-10T11:24:12;9.07;;;2.60;;
23474;SDS011;11910;52.086;21.066;2023-05-10T11:26:21;4.95;;;2.70;;
23474;SDS011;11910;52.086;21.066;2023-05-10T11:28:50;6.30;;;2.63;;
23474;SDS011;11910;52.086;21.066;2023-05-10T11:31:20;3.83;;;2.33;;
23474;SDS011;11910;52.086;21.066;2023-05-10T11:33:47;9.00;;;2.47;;
23474;SDS011;11910;52.086;21.066;2023-05-10T11:36:15;7.75;;;2.50;;
23474;SDS011;11910;52.086;21.066;2023-05-10T11:38:46;5.88;;;2.50;;
23474;SDS011;11910;52.086;21.066;2023-05-10T11:41:16;9.13;;;2.33;;
23474;SDS011;11910;52.086;21.066;2023-05-10T11:43:43;11.10;;;2.80;;
23474;SDS011;11910;52.086;21.066;2023-05-10T11:46:12;4.40;;;2.90;;
23474;SDS011;11910;52.086;21.066;2023-05-10T11:48:38;4.65;;;2.50;;
23474;SDS011;11910;52.086;21.066;2023-05-10T11:51:06;4.43;;;2.70;;
23474;SDS011;11910;52.086;21.066;2023-05-10T11:53:35;6.90;;;2.78;;
23474;SDS011;11910;52.086;21.066;2023-05-10T11:56:06;3.05;;;2.20;;
23474;SDS011;11910;52.086;21.066;2023-05-10T11:58:32;6.05;;;2.65;;
23474;SDS011;11910;52.086;21.066;2023-05-10T12:00:59;7.03;;;2.42;;
23474;SDS011;11910;52.086;21.066;2023-05-10T12:03:25;6.10;;;2.30;;
23474;SDS011;11910;52.086;21.066;2023-05-10T12:05:57;4.30;;;2.28;;
23474;SDS011;11910;52.086;21.066;2023-05-10T12:08:24;3.78;;;2.20;;
23474;SDS011;11910;52.086;21.066;2023-05-10T12:10:51;6.03;;;2.70;;
23474;SDS011;11910;52.086;21.066;2023-05-10T12:13:18;9.65;;;2.53;;
23474;SDS011;11910;52.086;21.066;2023-05-10T12:15:45;5.75;;;2.20;;
23474;SDS011;11910;52.086;21.066;2023-05-10T12:18:12;8.23;;;2.75;;
23474;SDS011;11910;52.086;21.066;2023-05-10T12:20:38;7.63;;;2.47;;
23474;SDS011;11910;52.086;21.066;2023-05-10T12:23:04;7.85;;;2.50;;
23474;SDS011;11910;52.086;21.066;2023-05-10T12:25:31;6.45;;;2.50;;
23474;SDS011;11910;52.086;21.066;2023-05-10T12:27:58;6.10;;;2.53;;
23474;SDS011;11910;52.086;21.066;2023-05-10T12:30:29;9.50;;;2.38;;
23474;SDS011;11910;52.086;21.066;2023-05-10T12:33:00;8.38;;;2.53;;
23474;SDS011;11910;52.086;21.066;2023-05-10T12:35:29;8.43;;;2.63;;
23474;SDS011;11910;52.086;21.066;2023-05-10T12:37:55;4.38;;;2.40;;
23474;SDS011;11910;52.086;21.066;2023-05-10T12:40:21;5.57;;;2.75;;
23474;SDS011;11910;52.086;21.066;2023-05-10T12:42:47;4.53;;;2.20;;
23474;SDS011;11910;52.086;21.066;2023-05-10T12:45:13;7.45;;;2.67;;
23474;SDS011;11910;52.086;21.066;2023-05-10T12:47:39;5.50;;;2.67;;
23474;SDS011;11910;52.086;21.066;2023-05-10T12:50:05;6.95;;;2.65;;
23474;SDS011;11910;52.086;21.066;2023-05-10T12:52:31;7.85;;;2.42;;
23474;SDS011;11910;52.086;21.066;2023-05-10T12:54:57;4.97;;;2.30;;
23474;SDS011;11910;52.086;21.066;2023-05-10T12:57:24;4.95;;;2.33;;
23474;SDS011;11910;52.086;21.066;2023-05-10T12:59:50;5.68;;;2.38;;
23474;SDS011;11910;52.086;21.066;2023-05-10T13:02:15;5.97;;;2.40;;
23474;SDS011;11910;52.086;21.066;2023-05-10T13:04:43;4.05;;;2.33;;
23474;SDS011;11910;52.086;21.066;2023-05-10T13:07:09;5.88;;;2.40;;
23474;SDS011;11910;52.086;21.066;2023-05-10T13:09:35;4.38;;;2.28;;
23474;SDS011;11910;52.086;21.066;2023-05-10T13:12:01;6.55;;;2.53;;
23474;SDS011;11910;52.086;21.066;2023-05-10T13:14:27;6.40;;;2.55;;
23474;SDS011;11910;52.086;21.066;2023-05-10T13:16:53;5.78;;;2.13;;
23474;SDS011;11910;52.086;21.066;2023-05-10T13:19:19;4.95;;;2.45;;
23474;SDS011;11910;52.086;21.066;2023-05-10T13:21:44;5.60;;;2.38;;
23474;SDS011;11910;52.086;21.066;2023-05-10T13:24:10;8.20;;;2.40;;
23474;SDS011;11910;52.086;21.066;2023-05-10T13:26:38;5.68;;;2.35;;
23474;SDS011;11910;52.086;21.066;2023-05-10T13:29:05;5.13;;;2.13;;
23474;SDS011;11910;52.086;21.066;2023-05-10T13:31:31;3.28;;;2.08;;
23474;SDS011;11910;52.086;21.066;2023-05-10T13:33:56;4.03;;;2.10;;
23474;SDS011;11910;52.086;21.066;2023-05-10T13:36:22;4.93;;;2.35;;
23474;SDS011;11910;52.086;21.066;2023-05-10T13:38:48;5.75;;;2.30;;
23474;SDS011;11910;52.086;21.066;2023-05-10T13:41:13;7.78;;;2.60;;
23474;SDS011;11910;52.086;21.066;2023-05-10T13:43:39;4.70;;;2.40;;
23474;SDS011;11910;52.086;21.066;2023-05-10T13:46:05;7.25;;;2.67;;
23474;SDS011;11910;52.086;21.066;2023-05-10T13:48:30;6.72;;;2.80;;
23474;SDS011;11910;52.086;21.066;2023-05-10T13:50:56;5.18;;;2.63;;
23474;SDS011;11910;52.086;21.066;2023-05-10T13:53:22;9.07;;;2.50;;
23474;SDS011;11910;52.086;21.066;2023-05-10T13:55:47;8.77;;;2.45;;
23474;SDS011;11910;52.086;21.066;2023-05-10T13:58:16;3.55;;;2.30;;
23474;SDS011;11910;52.086;21.066;2023-05-10T14:00:49;6.45;;;2.53;;
23474;SDS011;11910;52.086;21.066;2023-05-10T14:03:15;6.13;;;2.50;;
23474;SDS011;11910;52.086;21.066;2023-05-10T14:05:41;6.35;;;2.70;;
23474;SDS011;11910;52.086;21.066;2023-05-10T14:08:07;8.45;;;2.50;;
23474;SDS011;11910;52.086;21.066;2023-05-10T14:10:34;5.05;;;2.35;;
23474;SDS011;11910;52.086;21.066;2023-05-10T14:13:00;4.85;;;2.45;;
23474;SDS011;11910;52.086;21.066;2023-05-10T14:15:26;5.95;;;2.53;;
23474;SDS011;11910;52.086;21.066;2023-05-10T14:17:51;5.60;;;2.90;;
23474;SDS011;11910;52.086;21.066;2023-05-10T14:20:17;4.45;;;2.58;;
23474;SDS011;11910;52.086;21.066;2023-05-10T14:22:42;9.68;;;2.88;;
23474;SDS011;11910;52.086;21.066;2023-05-10T14:25:08;5.60;;;2.47;;
23474;SDS011;11910;52.086;21.066;2023-05-10T14:27:34;7.45;;;2.53;;
23474;SDS011;11910;52.086;21.066;2023-05-10T14:29:59;4.32;;;2.28;;
23474;SDS011;11910;52.086;21.066;2023-05-10T14:32:25;8.35;;;2.33;;
23474;SDS011;11910;52.086;21.066;2023-05-10T14:34:52;5.40;;;2.70;;
23474;SDS011;11910;52.086;21.066;2023-05-10T14:37:17;7.22;;;2.42;;
23474;SDS011;11910;52.086;21.066;2023-05-10T14:39:43;3.83;;;2.58;;
23474;SDS011;11910;52.086;21.066;2023-05-10T14:42:08;5.95;;;2.70;;
23474;SDS011;11910;52.086;21.066;2023-05-10T14:44:34;3.88;;;2.65;;
23474;SDS011;11910;52.086;21.066;2023-05-10T14:47:00;6.35;;;2.47;;
23474;SDS011;11910;52.086;21.066;2023-05-10T14:49:25;5.30;;;2.65;;
23474;SDS011;11910;52.086;21.066;2023-05-10T14:51:51;7.50;;;2.60;;
23474;SDS011;11910;52.086;21.066;2023-05-10T14:54:17;6.43;;;2.40;;
23474;SDS011;11910;52.086;21.066;2023-05-10T14:56:42;5.20;;;2.70;;
23474;SDS011;11910;52.086;21.066;2023-05-10T14:59:08;5.30;;;2.72;;
23474;SDS011;11910;52.086;21.066;2023-05-10T15:01:34;5.53;;;2.72;;
23474;SDS011;11910;52.086;21.066;2023-05-10T15:04:02;4.82;;;2.88;;
23474;SDS011;11910;52.086;21.066;2023-05-10T15:06:32;8.75;;;2.88;;
23474;SDS011;11910;52.086;21.066;2023-05-10T15:08:59;6.33;;;2.80;;
23474;SDS011;11910;52.086;21.066;2023-05-10T15:11:26;6.65;;;2.80;;
23474;SDS011;11910;52.086;21.066;2023-05-10T15:13:51;7.75;;;2.40;;